sensor_id;sensor_type;location;lat;lon;timestamp;temperature;humidity
1429;DHT22;708;51.442;7.016;2022-08-27T00:02:00;19.50;99.90
1429;DHT22;708;51.442;7.016;2022-08-27T00:04:28;19.50;99.90
1429;DHT22;708;51.442;7.016;2022-08-27T00:06:55;19.50;99.90
1429;DHT22;708;51.442;7.016;2022-08-27T00:09:22;19.50;99.90
1429;DHT22;708;51.442;7.016;2022-08-27T00:11:49;19.50;99.90
1429;DHT22;708;51.442;7.016;2022-08-27T00:14:16;19.50;99.90
1429;DHT22;708;51.442;7.016;2022-08-27T00:16:42;19.60;99.90
1429;DHT22;708;51.442;7.016;2022-08-27T00:19:10;19.60;99.90
1429;DHT22;708;51.442;7.016;2022-08-27T00:21:38;19.60;99.90
1429;DHT22;708;51.442;7.016;2022-08-27T00:24:05;19.50;99.90
1429;DHT22;708;51.442;7.016;2022-08-27T00:26:32;19.50;99.90
1429;DHT22;708;51.442;7.016;2022-08-27T00:28:59;19.50;99.90
1429;DHT22;708;51.442;7.016;2022-08-27T00:31:25;19.50;99.90
1429;DHT22;708;51.442;7.016;2022-08-27T00:33:53;19.40;99.90
1429;DHT22;708;51.442;7.016;2022-08-27T00:36:20;19.30;99.90
1429;DHT22;708;51.442;7.016;2022-08-27T00:38:48;19.30;99.90
1429;DHT22;708;51.442;7.016;2022-08-27T00:41:16;19.30;99.90
1429;DHT22;708;51.442;7.016;2022-08-27T00:43:47;19.30;99.90
1429;DHT22;708;51.442;7.016;2022-08-27T00:46:20;19.40;99.90
1429;DHT22;708;51.442;7.016;2022-08-27T00:48:51;19.40;99.90
1429;DHT22;708;51.442;7.016;2022-08-27T00:51:18;19.40;99.90
1429;DHT22;708;51.442;7.016;2022-08-27T00:53:48;19.40;99.90
1429;DHT22;708;51.442;7.016;2022-08-27T00:56:18;19.40;99.90
1429;DHT22;708;51.442;7.016;2022-08-27T00:58:47;19.40;99.90
1429;DHT22;708;51.442;7.016;2022-08-27T01:01:19;19.50;99.90
1429;DHT22;708;51.442;7.016;2022-08-27T01:03:49;19.50;99.90
1429;DHT22;708;51.442;7.016;2022-08-27T01:06:17;19.50;99.90
1429;DHT22;708;51.442;7.016;2022-08-27T01:08:50;19.50;99.90
1429;DHT22;708;51.442;7.016;2022-08-27T01:11:18;19.50;99.90
1429;DHT22;708;51.442;7.016;2022-08-27T01:13:45;19.50;99.90
1429;DHT22;708;51.442;7.016;2022-08-27T01:16:16;19.50;99.90
1429;DHT22;708;51.442;7.016;2022-08-27T01:18:44;19.50;99.90
1429;DHT22;708;51.442;7.016;2022-08-27T01:21:17;19.50;99.90
1429;DHT22;708;51.442;7.016;2022-08-27T01:23:53;19.50;99.90
1429;DHT22;708;51.442;7.016;2022-08-27T01:26:22;19.50;99.90
1429;DHT22;708;51.442;7.016;2022-08-27T01:28:50;19.40;99.90
1429;DHT22;708;51.442;7.016;2022-08-27T01:31:17;19.40;99.90
1429;DHT22;708;51.442;7.016;2022-08-27T01:33:53;19.40;99.90
1429;DHT22;708;51.442;7.016;2022-08-27T01:36:20;19.40;99.90
1429;DHT22;708;51.442;7.016;2022-08-27T01:38:47;19.30;99.90
1429;DHT22;708;51.442;7.016;2022-08-27T01:41:18;19.30;99.90
1429;DHT22;708;51.442;7.016;2022-08-27T01:43:47;19.30;99.90
1429;DHT22;708;51.442;7.016;2022-08-27T01:46:14;19.30;99.90
1429;DHT22;708;51.442;7.016;2022-08-27T01:48:40;19.30;99.90
1429;DHT22;708;51.442;7.016;2022-08-27T01:51:07;19.30;99.90
1429;DHT22;708;51.442;7.016;2022-08-27T01:53:34;19.20;99.90
1429;DHT22;708;51.442;7.016;2022-08-27T01:56:02;19.20;99.90
1429;DHT22;708;51.442;7.016;2022-08-27T01:58:31;19.20;99.90
1429;DHT22;708;51.442;7.016;2022-08-27T02:01:04;19.20;99.90
1429;DHT22;708;51.442;7.016;2022-08-27T02:03:32;19.20;99.90
1429;DHT22;708;51.442;7.016;2022-08-27T02:06:03;19.20;99.90
1429;DHT22;708;51.442;7.016;2022-08-27T02:08:30;19.20;99.90
1429;DHT22;708;51.442;7.016;2022-08-27T02:10:57;19.20;99.90
1429;DHT22;708;51.442;7.016;2022-08-27T02:13:23;19.20;99.90
1429;DHT22;708;51.442;7.016;2022-08-27T02:15:50;19.20;99.90
1429;DHT22;708;51.442;7.016;2022-08-27T02:18:18;19.30;99.90
1429;DHT22;708;51.442;7.016;2022-08-27T02:20:46;19.20;99.90
1429;DHT22;708;51.442;7.016;2022-08-27T02:23:15;19.20;99.90
1429;DHT22;708;51.442;7.016;2022-08-27T02:25:43;19.30;99.90
1429;DHT22;708;51.442;7.016;2022-08-27T02:28:12;19.20;99.90
1429;DHT22;708;51.442;7.016;2022-08-27T02:30:39;19.20;99.90
1429;DHT22;708;51.442;7.016;2022-08-27T02:33:06;19.30;99.90
1429;DHT22;708;51.442;7.016;2022-08-27T02:35:36;19.30;99.90
1429;DHT22;708;51.442;7.016;2022-08-27T02:38:03;19.30;99.90
1429;DHT22;708;51.442;7.016;2022-08-27T02:40:30;19.30;99.90
1429;DHT22;708;51.442;7.016;2022-08-27T02:42:57;19.30;99.90
1429;DHT22;708;51.442;7.016;2022-08-27T02:45:24;19.30;99.90
1429;DHT22;708;51.442;7.016;2022-08-27T02:47:50;19.30;99.90
1429;DHT22;708;51.442;7.016;2022-08-27T02:50:18;19.30;99.90
1429;DHT22;708;51.442;7.016;2022-08-27T02:52:46;19.20;99.90
1429;DHT22;708;51.442;7.016;2022-08-27T02:55:14;19.10;99.90
1429;DHT22;708;51.442;7.016;2022-08-27T02:57:41;19.10;99.90
1429;DHT22;708;51.442;7.016;2022-08-27T03:00:11;19.10;99.90
1429;DHT22;708;51.442;7.016;2022-08-27T03:02:38;19.00;99.90
1429;DHT22;708;51.442;7.016;2022-08-27T03:05:06;19.00;99.90
1429;DHT22;708;51.442;7.016;2022-08-27T03:07:34;19.10;99.90
1429;DHT22;708;51.442;7.016;2022-08-27T03:10:04;19.10;99.90
1429;DHT22;708;51.442;7.016;2022-08-27T03:12:30;19.10;99.90
1429;DHT22;708;51.442;7.016;2022-08-27T03:14:58;19.10;99.90
1429;DHT22;708;51.442;7.016;2022-08-27T03:17:24;19.10;99.90
1429;DHT22;708;51.442;7.016;2022-08-27T03:20:11;19.10;99.90
1429;DHT22;708;51.442;7.016;2022-08-27T03:22:38;19.10;99.90
1429;DHT22;708;51.442;7.016;2022-08-27T03:25:08;19.10;99.90
1429;DHT22;708;51.442;7.016;2022-08-27T03:27:35;19.10;99.90
1429;DHT22;708;51.442;7.016;2022-08-27T03:30:03;19.10;99.90
1429;DHT22;708;51.442;7.016;2022-08-27T03:32:30;19.10;99.90
1429;DHT22;708;51.442;7.016;2022-08-27T03:34:57;19.10;99.90
1429;DHT22;708;51.442;7.016;2022-08-27T03:37:24;19.10;99.90
1429;DHT22;708;51.442;7.016;2022-08-27T03:39:51;19.10;99.90
1429;DHT22;708;51.442;7.016;2022-08-27T03:42:19;19.00;99.90
1429;DHT22;708;51.442;7.016;2022-08-27T03:44:46;18.90;99.90
1429;DHT22;708;51.442;7.016;2022-08-27T03:47:14;18.90;99.90
1429;DHT22;708;51.442;7.016;2022-08-27T03:49:41;18.90;99.90
1429;DHT22;708;51.442;7.016;2022-08-27T03:52:08;18.90;99.90
1429;DHT22;708;51.442;7.016;2022-08-27T03:54:35;18.90;99.90
1429;DHT22;708;51.442;7.016;2022-08-27T03:57:03;18.90;99.90
1429;DHT22;708;51.442;7.016;2022-08-27T03:59:31;18.90;99.90
1429;DHT22;708;51.442;7.016;2022-08-27T04:01:58;18.90;99.90
1429;DHT22;708;51.442;7.016;2022-08-27T04:04:25;18.90;99.90
1429;DHT22;708;51.442;7.016;2022-08-27T04:06:52;18.80;99.90
1429;DHT22;708;51.442;7.016;2022-08-27T04:09:19;18.80;99.90
1429;DHT22;708;51.442;7.016;2022-08-27T04:11:46;18.80;99.90
1429;DHT22;708;51.442;7.016;2022-08-27T04:14:13;18.80;99.90
1429;DHT22;708;51.442;7.016;2022-08-27T04:16:41;18.80;99.90
1429;DHT22;708;51.442;7.016;2022-08-27T04:19:08;18.90;99.90
1429;DHT22;708;51.442;7.016;2022-08-27T04:21:37;18.90;99.90
1429;DHT22;708;51.442;7.016;2022-08-27T04:24:04;19.00;99.90
1429;DHT22;708;51.442;7.016;2022-08-27T04:26:31;18.90;99.90
1429;DHT22;708;51.442;7.016;2022-08-27T04:28:57;18.90;99.90
1429;DHT22;708;51.442;7.016;2022-08-27T04:31:24;18.80;99.90
1429;DHT22;708;51.442;7.016;2022-08-27T04:33:53;18.80;99.90
1429;DHT22;708;51.442;7.016;2022-08-27T04:36:20;18.80;99.90
1429;DHT22;708;51.442;7.016;2022-08-27T04:38:46;18.80;99.90
1429;DHT22;708;51.442;7.016;2022-08-27T04:41:13;18.80;99.90
1429;DHT22;708;51.442;7.016;2022-08-27T04:43:49;18.90;99.90
1429;DHT22;708;51.442;7.016;2022-08-27T04:46:20;18.90;99.90
1429;DHT22;708;51.442;7.016;2022-08-27T04:48:47;19.00;99.90
1429;DHT22;708;51.442;7.016;2022-08-27T04:51:15;19.00;99.90
1429;DHT22;708;51.442;7.016;2022-08-27T04:53:42;19.10;99.90
1429;DHT22;708;51.442;7.016;2022-08-27T04:56:12;19.10;99.90
1429;DHT22;708;51.442;7.016;2022-08-27T04:58:39;19.00;99.90
1429;DHT22;708;51.442;7.016;2022-08-27T05:01:06;19.00;99.90
1429;DHT22;708;51.442;7.016;2022-08-27T05:03:33;19.00;99.90
1429;DHT22;708;51.442;7.016;2022-08-27T05:06:02;19.00;99.90
1429;DHT22;708;51.442;7.016;2022-08-27T05:08:31;18.90;99.90
1429;DHT22;708;51.442;7.016;2022-08-27T05:10:58;19.00;99.90
1429;DHT22;708;51.442;7.016;2022-08-27T05:13:26;19.00;99.90
1429;DHT22;708;51.442;7.016;2022-08-27T05:15:57;19.00;99.90
1429;DHT22;708;51.442;7.016;2022-08-27T05:18:27;19.00;99.90
1429;DHT22;708;51.442;7.016;2022-08-27T05:20:54;19.00;99.90
1429;DHT22;708;51.442;7.016;2022-08-27T05:23:22;18.90;99.90
1429;DHT22;708;51.442;7.016;2022-08-27T05:25:52;18.90;99.90
1429;DHT22;708;51.442;7.016;2022-08-27T05:28:21;19.00;99.90
1429;DHT22;708;51.442;7.016;2022-08-27T05:30:50;19.00;99.90
1429;DHT22;708;51.442;7.016;2022-08-27T05:33:20;18.90;99.90
1429;DHT22;708;51.442;7.016;2022-08-27T05:35:48;18.90;99.90
1429;DHT22;708;51.442;7.016;2022-08-27T05:38:16;18.90;99.90
1429;DHT22;708;51.442;7.016;2022-08-27T05:40:44;18.90;99.90
1429;DHT22;708;51.442;7.016;2022-08-27T05:43:14;19.00;99.90
1429;DHT22;708;51.442;7.016;2022-08-27T05:45:43;19.10;99.90
1429;DHT22;708;51.442;7.016;2022-08-27T05:48:11;19.10;99.90
1429;DHT22;708;51.442;7.016;2022-08-27T05:50:39;19.20;99.90
1429;DHT22;708;51.442;7.016;2022-08-27T05:53:06;19.20;99.90
1429;DHT22;708;51.442;7.016;2022-08-27T05:55:37;19.30;99.90
1429;DHT22;708;51.442;7.016;2022-08-27T05:58:05;19.30;99.90
1429;DHT22;708;51.442;7.016;2022-08-27T06:00:36;19.30;99.90
1429;DHT22;708;51.442;7.016;2022-08-27T06:03:21;19.30;99.90
1429;DHT22;708;51.442;7.016;2022-08-27T06:05:47;19.50;99.90
1429;DHT22;708;51.442;7.016;2022-08-27T06:08:14;19.40;99.90
1429;DHT22;708;51.442;7.016;2022-08-27T06:10:41;19.40;99.90
1429;DHT22;708;51.442;7.016;2022-08-27T06:13:08;19.40;99.90
1429;DHT22;708;51.442;7.016;2022-08-27T06:15:36;19.50;99.90
1429;DHT22;708;51.442;7.016;2022-08-27T06:18:03;19.50;99.90
1429;DHT22;708;51.442;7.016;2022-08-27T06:20:30;19.50;99.90
1429;DHT22;708;51.442;7.016;2022-08-27T06:22:57;19.60;99.90
1429;DHT22;708;51.442;7.016;2022-08-27T06:25:24;19.60;99.90
1429;DHT22;708;51.442;7.016;2022-08-27T06:27:51;19.70;99.90
1429;DHT22;708;51.442;7.016;2022-08-27T06:30:17;19.80;99.90
1429;DHT22;708;51.442;7.016;2022-08-27T06:32:46;19.90;99.90
1429;DHT22;708;51.442;7.016;2022-08-27T06:35:12;19.90;99.90
1429;DHT22;708;51.442;7.016;2022-08-27T06:37:39;19.90;99.90
1429;DHT22;708;51.442;7.016;2022-08-27T06:40:07;20.00;99.90
1429;DHT22;708;51.442;7.016;2022-08-27T06:42:36;19.90;99.90
1429;DHT22;708;51.442;7.016;2022-08-27T06:45:03;20.00;99.90
1429;DHT22;708;51.442;7.016;2022-08-27T06:47:30;20.10;99.90
1429;DHT22;708;51.442;7.016;2022-08-27T06:49:59;20.10;99.90
1429;DHT22;708;51.442;7.016;2022-08-27T06:52:25;20.10;99.90
1429;DHT22;708;51.442;7.016;2022-08-27T06:54:52;20.20;99.90
1429;DHT22;708;51.442;7.016;2022-08-27T06:57:19;20.30;99.90
1429;DHT22;708;51.442;7.016;2022-08-27T06:59:49;20.30;99.90
1429;DHT22;708;51.442;7.016;2022-08-27T07:02:16;20.40;99.90
1429;DHT22;708;51.442;7.016;2022-08-27T07:04:43;20.50;99.90
1429;DHT22;708;51.442;7.016;2022-08-27T07:07:11;20.50;99.90
1429;DHT22;708;51.442;7.016;2022-08-27T07:09:39;20.50;99.90
1429;DHT22;708;51.442;7.016;2022-08-27T07:12:07;20.50;99.90
1429;DHT22;708;51.442;7.016;2022-08-27T07:14:34;20.50;99.90
1429;DHT22;708;51.442;7.016;2022-08-27T07:17:01;20.50;99.90
1429;DHT22;708;51.442;7.016;2022-08-27T07:19:28;20.70;99.90
1429;DHT22;708;51.442;7.016;2022-08-27T07:21:56;20.90;99.90
1429;DHT22;708;51.442;7.016;2022-08-27T07:24:24;21.00;99.90
1429;DHT22;708;51.442;7.016;2022-08-27T07:26:51;21.10;99.90
1429;DHT22;708;51.442;7.016;2022-08-27T07:29:18;21.30;99.90
1429;DHT22;708;51.442;7.016;2022-08-27T07:31:45;21.30;99.90
1429;DHT22;708;51.442;7.016;2022-08-27T07:34:12;21.40;99.90
1429;DHT22;708;51.442;7.016;2022-08-27T07:36:39;21.50;99.90
1429;DHT22;708;51.442;7.016;2022-08-27T07:39:07;21.60;99.90
1429;DHT22;708;51.442;7.016;2022-08-27T07:41:35;21.70;99.90
1429;DHT22;708;51.442;7.016;2022-08-27T07:44:23;21.80;99.90
1429;DHT22;708;51.442;7.016;2022-08-27T07:46:53;21.80;99.90
1429;DHT22;708;51.442;7.016;2022-08-27T07:49:21;21.80;99.90
1429;DHT22;708;51.442;7.016;2022-08-27T07:51:48;21.90;99.90
1429;DHT22;708;51.442;7.016;2022-08-27T07:54:16;22.10;99.90
1429;DHT22;708;51.442;7.016;2022-08-27T07:56:44;22.30;99.90
1429;DHT22;708;51.442;7.016;2022-08-27T07:59:11;22.50;99.90
1429;DHT22;708;51.442;7.016;2022-08-27T08:01:38;22.70;99.90
1429;DHT22;708;51.442;7.016;2022-08-27T08:04:08;22.90;99.90
1429;DHT22;708;51.442;7.016;2022-08-27T08:06:40;23.10;99.90
1429;DHT22;708;51.442;7.016;2022-08-27T08:09:07;23.20;99.90
1429;DHT22;708;51.442;7.016;2022-08-27T08:11:34;23.30;99.90
1429;DHT22;708;51.442;7.016;2022-08-27T08:14:03;23.40;99.90
1429;DHT22;708;51.442;7.016;2022-08-27T08:16:29;23.50;99.90
1429;DHT22;708;51.442;7.016;2022-08-27T08:18:56;23.40;99.90
1429;DHT22;708;51.442;7.016;2022-08-27T08:21:25;23.50;99.90
1429;DHT22;708;51.442;7.016;2022-08-27T08:23:51;23.60;99.90
1429;DHT22;708;51.442;7.016;2022-08-27T08:26:18;23.50;99.90
1429;DHT22;708;51.442;7.016;2022-08-27T08:28:45;23.50;99.90
1429;DHT22;708;51.442;7.016;2022-08-27T08:31:13;23.60;99.90
1429;DHT22;708;51.442;7.016;2022-08-27T08:33:40;23.60;99.90
1429;DHT22;708;51.442;7.016;2022-08-27T08:36:10;23.70;99.90
1429;DHT22;708;51.442;7.016;2022-08-27T08:38:37;23.60;99.90
1429;DHT22;708;51.442;7.016;2022-08-27T08:41:17;23.70;99.90
1429;DHT22;708;51.442;7.016;2022-08-27T08:43:45;23.80;99.90
1429;DHT22;708;51.442;7.016;2022-08-27T08:46:20;23.80;99.90
1429;DHT22;708;51.442;7.016;2022-08-27T08:48:54;23.80;99.90
1429;DHT22;708;51.442;7.016;2022-08-27T08:51:27;23.70;99.90
1429;DHT22;708;51.442;7.016;2022-08-27T08:53:59;23.80;99.90
1429;DHT22;708;51.442;7.016;2022-08-27T08:56:29;23.90;99.90
1429;DHT22;708;51.442;7.016;2022-08-27T08:59:00;24.00;99.90
1429;DHT22;708;51.442;7.016;2022-08-27T09:01:30;23.90;99.90
1429;DHT22;708;51.442;7.016;2022-08-27T09:03:59;23.90;99.90
1429;DHT22;708;51.442;7.016;2022-08-27T09:06:37;23.80;99.90
1429;DHT22;708;51.442;7.016;2022-08-27T09:09:15;23.80;99.90
1429;DHT22;708;51.442;7.016;2022-08-27T09:11:51;23.80;99.90
1429;DHT22;708;51.442;7.016;2022-08-27T09:14:33;23.80;99.90
1429;DHT22;708;51.442;7.016;2022-08-27T09:17:03;23.60;99.90
1429;DHT22;708;51.442;7.016;2022-08-27T09:19:30;23.40;99.90
1429;DHT22;708;51.442;7.016;2022-08-27T09:22:02;23.30;99.90
1429;DHT22;708;51.442;7.016;2022-08-27T09:24:38;23.30;99.90
1429;DHT22;708;51.442;7.016;2022-08-27T09:27:08;23.20;99.90
1429;DHT22;708;51.442;7.016;2022-08-27T09:29:46;23.30;99.90
1429;DHT22;708;51.442;7.016;2022-08-27T09:32:14;23.10;99.90
1429;DHT22;708;51.442;7.016;2022-08-27T09:34:43;23.20;99.90
1429;DHT22;708;51.442;7.016;2022-08-27T09:37:13;23.50;99.90
1429;DHT22;708;51.442;7.016;2022-08-27T09:39:47;23.60;99.90
1429;DHT22;708;51.442;7.016;2022-08-27T09:42:29;23.80;99.90
1429;DHT22;708;51.442;7.016;2022-08-27T09:44:56;24.00;99.90
1429;DHT22;708;51.442;7.016;2022-08-27T09:47:25;24.10;99.90
1429;DHT22;708;51.442;7.016;2022-08-27T09:50:05;24.20;99.90
1429;DHT22;708;51.442;7.016;2022-08-27T09:52:34;24.40;99.90
1429;DHT22;708;51.442;7.016;2022-08-27T09:55:02;24.50;99.90
1429;DHT22;708;51.442;7.016;2022-08-27T09:57:34;24.50;99.90
1429;DHT22;708;51.442;7.016;2022-08-27T10:00:07;24.80;99.90
1429;DHT22;708;51.442;7.016;2022-08-27T10:02:35;25.00;99.90
1429;DHT22;708;51.442;7.016;2022-08-27T10:05:13;25.10;99.90
1429;DHT22;708;51.442;7.016;2022-08-27T10:07:47;25.20;99.90
1429;DHT22;708;51.442;7.016;2022-08-27T10:10:20;25.20;99.90
1429;DHT22;708;51.442;7.016;2022-08-27T10:12:52;25.10;99.90
1429;DHT22;708;51.442;7.016;2022-08-27T10:15:20;25.00;99.90
1429;DHT22;708;51.442;7.016;2022-08-27T10:18:06;25.10;99.90
1429;DHT22;708;51.442;7.016;2022-08-27T10:20:46;25.10;99.90
1429;DHT22;708;51.442;7.016;2022-08-27T10:23:27;25.00;99.90
1429;DHT22;708;51.442;7.016;2022-08-27T10:26:08;25.00;99.90
1429;DHT22;708;51.442;7.016;2022-08-27T10:28:46;24.90;99.90
1429;DHT22;708;51.442;7.016;2022-08-27T10:31:21;24.80;99.90
1429;DHT22;708;51.442;7.016;2022-08-27T10:34:02;24.80;99.90
1429;DHT22;708;51.442;7.016;2022-08-27T10:36:55;25.00;99.90
1429;DHT22;708;51.442;7.016;2022-08-27T10:39:41;25.20;99.90
1429;DHT22;708;51.442;7.016;2022-08-27T10:44:02;25.50;99.90
1429;DHT22;708;51.442;7.016;2022-08-27T10:46:01;25.90;99.90
1429;DHT22;708;51.442;7.016;2022-08-27T10:48:39;26.10;99.90
1429;DHT22;708;51.442;7.016;2022-08-27T10:51:22;26.20;99.90
1429;DHT22;708;51.442;7.016;2022-08-27T10:54:14;26.20;99.90
1429;DHT22;708;51.442;7.016;2022-08-27T10:56:55;26.00;99.90
1429;DHT22;708;51.442;7.016;2022-08-27T10:59:29;26.00;99.90
1429;DHT22;708;51.442;7.016;2022-08-27T11:02:07;25.90;99.90
1429;DHT22;708;51.442;7.016;2022-08-27T11:04:38;26.10;99.90
1429;DHT22;708;51.442;7.016;2022-08-27T11:07:12;26.40;99.90
1429;DHT22;708;51.442;7.016;2022-08-27T11:09:46;26.60;99.90
1429;DHT22;708;51.442;7.016;2022-08-27T11:12:17;26.50;99.90
1429;DHT22;708;51.442;7.016;2022-08-27T11:14:48;26.60;99.90
1429;DHT22;708;51.442;7.016;2022-08-27T11:17:22;27.00;99.90
1429;DHT22;708;51.442;7.016;2022-08-27T11:19:53;27.00;99.30
1429;DHT22;708;51.442;7.016;2022-08-27T11:22:27;27.30;99.90
1429;DHT22;708;51.442;7.016;2022-08-27T11:25:00;27.60;98.80
1429;DHT22;708;51.442;7.016;2022-08-27T11:27:31;27.70;97.20
1429;DHT22;708;51.442;7.016;2022-08-27T11:30:03;27.80;96.10
1429;DHT22;708;51.442;7.016;2022-08-27T11:32:41;27.80;95.80
1429;DHT22;708;51.442;7.016;2022-08-27T11:35:15;27.60;96.40
1429;DHT22;708;51.442;7.016;2022-08-27T11:40:52;27.80;95.70
1429;DHT22;708;51.442;7.016;2022-08-27T11:43:22;28.00;95.20
1429;DHT22;708;51.442;7.016;2022-08-27T11:45:54;28.10;95.70
1429;DHT22;708;51.442;7.016;2022-08-27T11:48:23;28.20;94.70
1429;DHT22;708;51.442;7.016;2022-08-27T11:50:58;28.20;94.80
1429;DHT22;708;51.442;7.016;2022-08-27T11:53:30;28.20;94.30
1429;DHT22;708;51.442;7.016;2022-08-27T11:56:08;28.20;94.90
1429;DHT22;708;51.442;7.016;2022-08-27T11:58:35;28.10;93.80
1429;DHT22;708;51.442;7.016;2022-08-27T12:01:01;28.10;94.60
1429;DHT22;708;51.442;7.016;2022-08-27T12:03:39;28.10;93.90
1429;DHT22;708;51.442;7.016;2022-08-27T12:06:17;28.00;94.30
1429;DHT22;708;51.442;7.016;2022-08-27T12:08:45;28.00;93.70
1429;DHT22;708;51.442;7.016;2022-08-27T12:11:22;28.10;94.00
1429;DHT22;708;51.442;7.016;2022-08-27T12:13:57;28.10;93.90
1429;DHT22;708;51.442;7.016;2022-08-27T12:16:31;27.90;93.50
1429;DHT22;708;51.442;7.016;2022-08-27T12:19:09;27.70;93.40
1429;DHT22;708;51.442;7.016;2022-08-27T12:21:48;27.50;94.40
1429;DHT22;708;51.442;7.016;2022-08-27T12:24:34;27.20;95.50
1429;DHT22;708;51.442;7.016;2022-08-27T12:27:14;27.00;96.50
1429;DHT22;708;51.442;7.016;2022-08-27T12:29:48;27.00;96.00
1429;DHT22;708;51.442;7.016;2022-08-27T12:32:27;26.80;95.80
1429;DHT22;708;51.442;7.016;2022-08-27T12:35:03;26.80;96.70
1429;DHT22;708;51.442;7.016;2022-08-27T12:37:34;26.80;96.60
1429;DHT22;708;51.442;7.016;2022-08-27T12:40:10;26.70;96.20
1429;DHT22;708;51.442;7.016;2022-08-27T12:42:37;26.80;96.70
1429;DHT22;708;51.442;7.016;2022-08-27T12:45:05;26.60;97.00
1429;DHT22;708;51.442;7.016;2022-08-27T12:47:38;26.60;97.30
1429;DHT22;708;51.442;7.016;2022-08-27T12:50:06;26.40;97.30
1429;DHT22;708;51.442;7.016;2022-08-27T12:52:48;26.40;97.20
1429;DHT22;708;51.442;7.016;2022-08-27T12:55:29;26.40;97.10
1429;DHT22;708;51.442;7.016;2022-08-27T12:58:01;26.50;97.10
1429;DHT22;708;51.442;7.016;2022-08-27T13:00:44;26.60;97.40
1429;DHT22;708;51.442;7.016;2022-08-27T13:03:23;26.80;96.00
1429;DHT22;708;51.442;7.016;2022-08-27T13:05:52;26.70;96.40
1429;DHT22;708;51.442;7.016;2022-08-27T13:08:25;26.70;96.10
1429;DHT22;708;51.442;7.016;2022-08-27T13:10:54;26.80;95.90
1429;DHT22;708;51.442;7.016;2022-08-27T13:13:23;26.70;96.10
1429;DHT22;708;51.442;7.016;2022-08-27T13:15:52;26.80;96.20
1429;DHT22;708;51.442;7.016;2022-08-27T13:18:21;26.80;95.60
1429;DHT22;708;51.442;7.016;2022-08-27T13:20:49;26.80;95.00
1429;DHT22;708;51.442;7.016;2022-08-27T13:23:18;26.80;95.60
1429;DHT22;708;51.442;7.016;2022-08-27T13:25:56;26.80;95.10
1429;DHT22;708;51.442;7.016;2022-08-27T13:28:25;26.90;94.90
1429;DHT22;708;51.442;7.016;2022-08-27T13:30:54;26.90;94.70
1429;DHT22;708;51.442;7.016;2022-08-27T13:33:23;26.90;94.50
1429;DHT22;708;51.442;7.016;2022-08-27T13:35:52;26.60;94.00
1429;DHT22;708;51.442;7.016;2022-08-27T13:38:21;26.40;94.50
1429;DHT22;708;51.442;7.016;2022-08-27T13:40:55;26.50;95.10
1429;DHT22;708;51.442;7.016;2022-08-27T13:43:29;26.50;95.50
1429;DHT22;708;51.442;7.016;2022-08-27T13:45:58;26.50;95.70
1429;DHT22;708;51.442;7.016;2022-08-27T13:48:25;26.60;94.50
1429;DHT22;708;51.442;7.016;2022-08-27T13:50:55;26.50;95.00
1429;DHT22;708;51.442;7.016;2022-08-27T13:53:25;26.40;95.40
1429;DHT22;708;51.442;7.016;2022-08-27T13:56:23;26.40;95.70
1429;DHT22;708;51.442;7.016;2022-08-27T13:58:50;26.30;95.60
1429;DHT22;708;51.442;7.016;2022-08-27T14:01:25;26.30;95.40
1429;DHT22;708;51.442;7.016;2022-08-27T14:03:56;26.40;95.10
1429;DHT22;708;51.442;7.016;2022-08-27T14:06:25;26.40;95.40
1429;DHT22;708;51.442;7.016;2022-08-27T14:08:53;26.40;95.70
1429;DHT22;708;51.442;7.016;2022-08-27T14:11:24;26.50;95.00
1429;DHT22;708;51.442;7.016;2022-08-27T14:13:53;26.40;94.20
1429;DHT22;708;51.442;7.016;2022-08-27T14:16:28;26.30;94.40
1429;DHT22;708;51.442;7.016;2022-08-27T14:19:02;26.00;95.30
1429;DHT22;708;51.442;7.016;2022-08-27T14:21:30;25.90;95.00
1429;DHT22;708;51.442;7.016;2022-08-27T14:23:57;25.80;95.10
1429;DHT22;708;51.442;7.016;2022-08-27T14:26:25;25.90;95.80
1429;DHT22;708;51.442;7.016;2022-08-27T14:28:53;26.00;95.60
1429;DHT22;708;51.442;7.016;2022-08-27T14:31:20;26.00;95.90
1429;DHT22;708;51.442;7.016;2022-08-27T14:33:47;26.00;94.40
1429;DHT22;708;51.442;7.016;2022-08-27T14:36:14;26.00;94.80
1429;DHT22;708;51.442;7.016;2022-08-27T14:38:44;26.10;95.30
1429;DHT22;708;51.442;7.016;2022-08-27T14:41:14;26.00;94.70
1429;DHT22;708;51.442;7.016;2022-08-27T14:43:43;26.10;95.00
1429;DHT22;708;51.442;7.016;2022-08-27T14:46:18;26.20;94.90
1429;DHT22;708;51.442;7.016;2022-08-27T14:48:46;26.20;95.10
1429;DHT22;708;51.442;7.016;2022-08-27T14:51:19;26.20;94.30
1429;DHT22;708;51.442;7.016;2022-08-27T14:53:47;26.10;94.50
1429;DHT22;708;51.442;7.016;2022-08-27T14:56:15;26.10;94.50
1429;DHT22;708;51.442;7.016;2022-08-27T14:58:43;26.10;94.00
1429;DHT22;708;51.442;7.016;2022-08-27T15:01:10;26.10;94.20
1429;DHT22;708;51.442;7.016;2022-08-27T15:03:44;26.20;94.20
1429;DHT22;708;51.442;7.016;2022-08-27T15:06:12;26.30;94.40
1429;DHT22;708;51.442;7.016;2022-08-27T15:08:39;26.40;95.10
1429;DHT22;708;51.442;7.016;2022-08-27T15:11:10;26.60;94.50
1429;DHT22;708;51.442;7.016;2022-08-27T15:13:37;26.70;93.10
1429;DHT22;708;51.442;7.016;2022-08-27T15:16:06;26.60;93.20
1429;DHT22;708;51.442;7.016;2022-08-27T15:18:32;26.70;93.30
1429;DHT22;708;51.442;7.016;2022-08-27T15:20:59;26.60;92.60
1429;DHT22;708;51.442;7.016;2022-08-27T15:23:26;26.60;93.60
1429;DHT22;708;51.442;7.016;2022-08-27T15:25:53;26.60;94.60
1429;DHT22;708;51.442;7.016;2022-08-27T15:28:19;26.40;92.50
1429;DHT22;708;51.442;7.016;2022-08-27T15:30:46;26.20;92.90
1429;DHT22;708;51.442;7.016;2022-08-27T15:33:15;26.00;93.60
1429;DHT22;708;51.442;7.016;2022-08-27T15:35:42;25.90;94.20
1429;DHT22;708;51.442;7.016;2022-08-27T15:38:08;25.40;95.10
1429;DHT22;708;51.442;7.016;2022-08-27T15:40:35;25.20;96.50
1429;DHT22;708;51.442;7.016;2022-08-27T15:43:05;25.00;97.30
1429;DHT22;708;51.442;7.016;2022-08-27T15:45:32;24.80;97.70
1429;DHT22;708;51.442;7.016;2022-08-27T15:48:01;24.70;98.60
1429;DHT22;708;51.442;7.016;2022-08-27T15:50:30;24.50;99.20
1429;DHT22;708;51.442;7.016;2022-08-27T15:52:59;24.50;99.70
1429;DHT22;708;51.442;7.016;2022-08-27T15:55:30;24.40;99.90
1429;DHT22;708;51.442;7.016;2022-08-27T15:57:58;24.40;99.90
1429;DHT22;708;51.442;7.016;2022-08-27T16:00:26;24.40;99.90
1429;DHT22;708;51.442;7.016;2022-08-27T16:02:54;24.40;99.90
1429;DHT22;708;51.442;7.016;2022-08-27T16:05:22;24.40;99.90
1429;DHT22;708;51.442;7.016;2022-08-27T16:07:50;24.30;99.90
1429;DHT22;708;51.442;7.016;2022-08-27T16:10:17;24.30;99.90
1429;DHT22;708;51.442;7.016;2022-08-27T16:12:44;24.30;99.90
1429;DHT22;708;51.442;7.016;2022-08-27T16:15:12;24.20;99.90
1429;DHT22;708;51.442;7.016;2022-08-27T16:17:39;24.20;99.90
1429;DHT22;708;51.442;7.016;2022-08-27T16:20:08;24.20;99.90
1429;DHT22;708;51.442;7.016;2022-08-27T16:22:36;24.30;99.90
1429;DHT22;708;51.442;7.016;2022-08-27T16:25:05;24.20;99.90
1429;DHT22;708;51.442;7.016;2022-08-27T16:27:32;24.20;99.90
1429;DHT22;708;51.442;7.016;2022-08-27T16:29:59;24.20;99.90
1429;DHT22;708;51.442;7.016;2022-08-27T16:32:26;24.10;99.90
1429;DHT22;708;51.442;7.016;2022-08-27T16:34:54;24.00;99.90
1429;DHT22;708;51.442;7.016;2022-08-27T16:37:21;24.00;99.90
1429;DHT22;708;51.442;7.016;2022-08-27T16:39:48;24.00;99.90